< Typhoon 200603 2006 Season Typhoon 200605 >
Typhoon 200604 (BILIS)
General InformationTrack Information on Google MapsDetailed Wind InformationAccess Analytics MapList of All Images || NewsDisaster Info.WeblogTrackbackTyphoon FrontResourceGoogle EarthGE AnimationAtom FeedGeoJSON
Detalied Best Track (Time Zone = UTC)
Year Month Day Hour Lat. Long. Pressure (hPa) Wind (kt) Class Image Chart
2006 7 8 06 11.6 140.5 1000 0 2 Image Chart
2006 7 8 12 12.0 139.7 1000 0 2 Image Chart
2006 7 8 18 12.5 138.8 1000 0 2 Image Chart
2006 7 9 00 12.9 137.9 1000 0 2 Image Chart
2006 7 9 06 13.4 137.0 998 35 3 Image Chart
2006 7 9 12 14.1 136.0 998 35 3 Image Chart
2006 7 9 18 14.7 135.0 996 35 3 Image Chart
2006 7 10 00 15.5 133.8 996 35 3 Image Chart
2006 7 10 06 16.3 132.7 994 40 3 Image Chart
2006 7 10 12 16.9 131.8 992 45 3 Image Chart
2006 7 10 18 17.6 130.9 990 50 4 Image Chart
2006 7 11 00 18.3 129.9 990 55 4 Image Chart
2006 7 11 06 19.0 129.0 990 55 4 Image Chart
2006 7 11 12 19.4 128.3 985 55 4 Image Chart
2006 7 11 18 20.0 127.0 985 55 4 Image Chart
2006 7 12 00 20.8 126.0 980 55 4 Image Chart
2006 7 12 06 21.3 125.3 980 55 4 Image Chart
2006 7 12 09 21.6 124.8 975 55 4 Image Chart
2006 7 12 12 22.0 124.4 975 55 4 Image Chart
2006 7 12 15 22.2 124.1 975 55 4 Image Chart
2006 7 12 18 22.5 123.9 975 55 4 Image Chart
2006 7 12 21 22.8 123.6 975 60 4 Image Chart
2006 7 13 00 23.1 123.4 975 60 4 Image Chart
2006 7 13 03 23.4 123.3 975 60 4 Image Chart
2006 7 13 06 23.7 123.1 970 60 4 Image Chart
2006 7 13 09 24.4 122.7 970 60 4 Image Chart
2006 7 13 12 24.8 122.5 975 55 4 Image Chart
2006 7 13 15 25.2 121.7 975 55 4 Image Chart
2006 7 13 18 25.5 121.1 975 55 4 Image Chart
2006 7 13 21 25.6 120.8 975 55 4 Image Chart
2006 7 14 00 25.7 120.5 975 55 4 Image Chart
2006 7 14 03 25.9 120.1 975 55 4 Image Chart
2006 7 14 06 26.3 119.3 980 55 4 Image Chart
2006 7 14 09 26.6 118.8 980 55 4 Image Chart
2006 7 14 12 26.7 118.2 985 50 4 Image Chart
2006 7 14 18 26.8 117.0 985 50 4 Image Chart
2006 7 15 00 26.9 116.1 990 40 3 Image Chart
2006 7 15 06 26.7 114.9 990 0 2 Image Chart
2006 7 15 12 26.9 114.3 990 0 2 Image Chart
2006 7 15 18 27.4 113.8 992 0 2 Image Chart
2006 7 16 00 27.7 113.3 994 0 2 Image Chart
2006 7 16 06 28.0 112.9 994 0 2 Image Chart
2006 7 16 12 28.4 112.4 996 0 2 Image Chart
2006 7 16 18 28.8 112.1 996 0 2 Image Chart
Japan Meteorological Agency Best Track Data | Correction Date : 2006-08-23
< Typhoon 200603 2006 Season Typhoon 200605 >

Help